createdAt,value
2023-04-05T00:04:34.702Z,101061.00
2023-04-05T00:09:36.597Z,101058.16
2023-04-05T00:14:37.863Z,101053.09
2023-04-05T00:19:39.368Z,101050.75
2023-04-05T00:24:43.616Z,101049.28
2023-04-05T00:29:45.003Z,101047.59
2023-04-05T00:34:46.386Z,101042.59
2023-04-05T00:39:47.661Z,101046.25
2023-04-05T00:44:48.949Z,101052.91
2023-04-05T00:49:50.323Z,101046.59
2023-04-05T00:54:51.659Z,101047.97
2023-04-05T00:59:52.881Z,101045.59
2023-04-05T01:04:54.169Z,101030.00
2023-04-05T01:09:55.565Z,101022.66
2023-04-05T01:14:56.802Z,101019.63
2023-04-05T01:20:01.141Z,101033.25
2023-04-05T01:25:02.878Z,101030.66
2023-04-05T01:30:04.377Z,101024.69
2023-04-05T01:35:05.762Z,101020.16
2023-04-05T01:40:07.084Z,101018.88
2023-04-05T01:45:09.457Z,101013.09
2023-04-05T01:50:10.767Z,101018.16
2023-04-05T01:55:11.984Z,101016.69
2023-04-05T02:00:13.408Z,101010.28
2023-04-05T02:05:14.729Z,101010.03
2023-04-05T02:10:16.229Z,101003.56
2023-04-05T02:15:17.478Z,101010.06
2023-04-05T02:20:18.739Z,101008.41
2023-04-05T02:25:20.014Z,100996.97
2023-04-05T02:30:21.640Z,101000.38
2023-04-05T02:35:23.309Z,100997.00
2023-04-05T02:40:25.310Z,101002.66
2023-04-05T02:45:27.891Z,100994.84
2023-04-05T02:50:29.345Z,100990.16
2023-04-05T02:55:31.031Z,100999.56
2023-04-05T03:00:32.586Z,100999.84
2023-04-05T03:05:33.822Z,101007.28
2023-04-05T03:10:36.314Z,100998.78
2023-04-05T03:15:37.637Z,100992.88
2023-04-05T03:20:40.180Z,100994.75
2023-04-05T03:25:41.815Z,100992.06
2023-04-05T03:30:43.246Z,100998.13
2023-04-05T03:35:44.535Z,100987.44
2023-04-05T03:40:46.074Z,100982.75
2023-04-05T03:45:47.384Z,100987.59
2023-04-05T03:50:48.699Z,100986.81
2023-04-05T03:55:50.524Z,100978.47
2023-04-05T04:00:52.846Z,100981.13
2023-04-05T04:05:54.147Z,100968.38
2023-04-05T04:10:55.692Z,100975.16
2023-04-05T04:15:56.953Z,100970.00
2023-04-05T04:20:58.640Z,100970.06
2023-04-05T04:26:01.668Z,100966.06
2023-04-05T04:31:05.024Z,100972.50
2023-04-05T04:36:06.920Z,100972.97
2023-04-05T04:41:14.556Z,100976.41
2023-04-05T04:46:15.983Z,100972.28
2023-04-05T04:51:17.312Z,100976.34
2023-04-05T04:56:18.527Z,100979.91
2023-04-05T05:01:19.748Z,100981.34
2023-04-05T05:06:22.054Z,100977.97
2023-04-05T05:11:23.303Z,100980.75
2023-04-05T05:16:24.699Z,100984.91
2023-04-05T05:21:26.731Z,100989.09
2023-04-05T05:26:27.965Z,100978.97
2023-04-05T05:31:29.361Z,100972.16
2023-04-05T05:36:31.368Z,100976.69
2023-04-05T05:41:32.574Z,100979.22
2023-04-05T05:46:33.975Z,100978.97
2023-04-05T05:51:36.414Z,100981.34
2023-04-05T05:56:37.573Z,100982.50
2023-04-05T06:01:42.406Z,100992.81
2023-04-05T06:06:43.924Z,100990.34
2023-04-05T06:11:55.757Z,100993.63
2023-04-05T06:16:58.144Z,100986.38
2023-04-05T06:22:00.758Z,100983.69
2023-04-05T06:27:02.111Z,100980.41
2023-04-05T06:32:03.493Z,100974.38
2023-04-05T06:37:04.706Z,100984.41
2023-04-05T06:42:06.118Z,100986.75
2023-04-05T06:47:07.634Z,100976.03
2023-04-05T06:52:08.886Z,100979.19
2023-04-05T06:57:10.419Z,100978.94
2023-04-05T07:02:12.207Z,100984.31
2023-04-05T07:07:13.728Z,100980.88
2023-04-05T07:12:15.401Z,100977.06
2023-04-05T07:17:16.864Z,100966.38
2023-04-05T07:22:18.268Z,100966.97
2023-04-05T07:27:19.724Z,100970.16
2023-04-05T07:32:21.296Z,100970.50
2023-04-05T07:37:22.647Z,100969.13
2023-04-05T07:42:24.122Z,100968.97
2023-04-05T07:47:25.465Z,100976.16
2023-04-05T07:52:26.620Z,100964.47
2023-04-05T07:57:27.809Z,100973.13
2023-04-05T08:02:29.034Z,100971.31
2023-04-05T08:07:30.516Z,100960.28
2023-04-05T08:12:35.724Z,100968.03
2023-04-05T08:17:38.384Z,100964.16
2023-04-05T08:22:39.531Z,100962.00
2023-04-05T08:27:41.255Z,100963.59
2023-04-05T08:32:42.586Z,100960.94
2023-04-05T08:37:44.015Z,100963.03
2023-04-05T08:42:45.280Z,100963.34
2023-04-05T08:47:46.654Z,100956.06
2023-04-05T08:52:49.897Z,100962.19
2023-04-05T08:57:51.247Z,100956.56
2023-04-05T09:02:52.530Z,100958.63
2023-04-05T09:07:53.941Z,100959.59
2023-04-05T09:12:55.148Z,100959.03
2023-04-05T09:17:56.353Z,100963.56
2023-04-05T09:22:57.586Z,100955.13
2023-04-05T09:27:58.771Z,100950.22
2023-04-05T09:33:00.036Z,100950.03
2023-04-05T09:38:01.335Z,100943.69
2023-04-05T09:43:02.543Z,100939.81
2023-04-05T09:48:03.773Z,100935.41
2023-04-05T09:53:05.024Z,100935.44
2023-04-05T09:58:06.240Z,100930.91
2023-04-05T10:03:07.617Z,100925.78
2023-04-05T10:08:08.980Z,100928.03
2023-04-05T10:13:10.540Z,100922.88
2023-04-05T10:18:11.838Z,100920.28
2023-04-05T10:23:13.239Z,100915.75
2023-04-05T10:28:14.413Z,100919.91
2023-04-05T10:33:15.650Z,100907.34
2023-04-05T10:38:16.871Z,100908.28
2023-04-05T10:43:18.116Z,100893.06
2023-04-05T10:48:19.511Z,100891.22
2023-04-05T10:53:20.931Z,100883.75
2023-04-05T10:58:22.104Z,100882.69
2023-04-05T11:03:23.404Z,100876.94
2023-04-05T11:08:24.657Z,100871.59
2023-04-05T11:13:25.886Z,100865.84
2023-04-05T11:18:27.099Z,100863.25
2023-04-05T11:23:28.369Z,100861.78
2023-04-05T11:28:29.637Z,100847.00
2023-04-05T11:33:30.857Z,100851.66
2023-04-05T11:38:32.024Z,100846.34
2023-04-05T11:43:35.123Z,100838.03
2023-04-05T11:48:36.549Z,100833.50
2023-04-05T11:53:37.746Z,100834.69
2023-04-05T11:58:38.901Z,100825.25
2023-04-05T12:03:40.164Z,100819.72
2023-04-05T12:08:42.093Z,100823.63
2023-04-05T12:13:43.338Z,100814.19
2023-04-05T12:18:44.495Z,100809.75
2023-04-05T12:23:45.664Z,100812.56
2023-04-05T12:28:47.061Z,100808.50
2023-04-05T12:33:48.290Z,100793.63
2023-04-05T12:38:50.263Z,100783.63
2023-04-05T12:43:53.717Z,100785.59
2023-04-05T12:48:54.858Z,100784.44
2023-04-05T12:53:56.138Z,100778.38
2023-04-05T12:58:57.381Z,100765.03
2023-04-05T13:04:08.506Z,100756.91
2023-04-05T13:09:16.307Z,100754.06
2023-04-05T13:14:17.966Z,100745.16
2023-04-05T13:19:19.214Z,100751.75
2023-04-05T13:24:20.370Z,100739.31
2023-04-05T13:29:21.555Z,100736.25
2023-04-05T13:34:22.749Z,100729.31
2023-04-05T13:39:23.970Z,100716.81
2023-04-05T13:44:25.417Z,100721.13
2023-04-05T13:49:26.586Z,100720.09
2023-04-05T13:54:27.807Z,100710.91
2023-04-05T13:59:29.121Z,100707.28
2023-04-05T14:04:30.467Z,100710.03
2023-04-05T14:09:32.358Z,100701.50
2023-04-05T14:14:33.572Z,100689.69
2023-04-05T14:19:34.742Z,100687.91
2023-04-05T14:24:36.019Z,100678.28
2023-04-05T14:29:37.256Z,100668.97
2023-04-05T14:34:38.463Z,100660.03
2023-04-05T14:39:39.687Z,100659.78
2023-04-05T14:44:40.891Z,100651.78
2023-04-05T14:49:42.241Z,100649.78
2023-04-05T14:54:44.666Z,100636.78
2023-04-05T14:59:46.034Z,100642.19
2023-04-05T15:04:47.233Z,100641.25
2023-04-05T15:09:48.761Z,100635.97
2023-04-05T15:14:50.800Z,100643.09
2023-04-05T15:19:52.017Z,100639.09
2023-04-05T15:24:53.198Z,100636.72
2023-04-05T15:29:54.358Z,100626.00
2023-04-05T15:34:55.741Z,100625.16
2023-04-05T15:39:56.943Z,100621.75
2023-04-05T15:44:58.074Z,100613.41
2023-04-05T15:49:59.210Z,100607.63
2023-04-05T15:55:00.639Z,100610.22
2023-04-05T16:00:01.875Z,100601.56
2023-04-05T16:05:03.087Z,100609.66
2023-04-05T16:10:04.439Z,100607.50
2023-04-05T16:15:05.865Z,100599.22
2023-04-05T16:20:07.093Z,100599.13
2023-04-05T16:25:08.268Z,100601.13
2023-04-05T16:30:09.467Z,100587.47
2023-04-05T16:35:10.893Z,100582.91
2023-04-05T16:40:12.170Z,100594.22
2023-04-05T16:45:13.617Z,100592.13
2023-04-05T16:50:14.781Z,100595.41
2023-04-05T16:55:15.993Z,100600.31
2023-04-05T17:00:17.187Z,100598.25
2023-04-05T17:05:18.468Z,100595.63
2023-04-05T17:10:19.679Z,100593.34
2023-04-05T17:15:21.086Z,100589.06
2023-04-05T17:20:23.122Z,100591.84
2023-04-05T17:25:24.320Z,100592.81
2023-04-05T17:30:26.178Z,100588.66
2023-04-05T17:35:27.346Z,100587.25
2023-04-05T17:40:28.865Z,100596.28
2023-04-05T17:45:30.123Z,100596.19
2023-04-05T17:50:31.363Z,100598.44
2023-04-05T17:55:33.441Z,100600.59
2023-04-05T18:00:34.714Z,100597.66
2023-04-05T18:05:36.217Z,100596.25
2023-04-05T18:10:37.378Z,100601.34
2023-04-05T18:15:38.622Z,100601.28
2023-04-05T18:20:40.525Z,100604.31
2023-04-05T18:25:42.242Z,100613.84
2023-04-05T18:30:43.416Z,100607.94
2023-04-05T18:35:44.651Z,100611.88
2023-04-05T18:40:46.097Z,100611.66
2023-04-05T18:45:47.398Z,100614.28
2023-04-05T18:50:49.762Z,100615.34
2023-04-05T18:55:51.239Z,100622.72
2023-04-05T19:00:52.780Z,100625.06
2023-04-05T19:05:53.988Z,100624.28
2023-04-05T19:10:55.233Z,100630.00
2023-04-05T19:15:56.473Z,100632.88
2023-04-05T19:20:57.675Z,100638.34
2023-04-05T19:25:59.038Z,100635.19
2023-04-05T19:31:00.580Z,100639.63
2023-04-05T19:36:02.037Z,100641.16
2023-04-05T19:41:03.413Z,100637.72
2023-04-05T19:46:04.708Z,100629.31
2023-04-05T19:51:06.764Z,100633.69
2023-04-05T19:56:08.148Z,100630.28
2023-04-05T20:01:09.352Z,100634.38
2023-04-05T20:06:10.616Z,100635.31
2023-04-05T20:11:11.897Z,100638.34
2023-04-05T20:16:13.208Z,100636.22
2023-04-05T20:21:14.478Z,100627.22
2023-04-05T20:26:15.743Z,100624.31
2023-04-05T20:31:16.968Z,100626.31
2023-04-05T20:36:18.194Z,100627.75
2023-04-05T20:41:19.755Z,100622.44
2023-04-05T20:46:21.015Z,100617.16
2023-04-05T20:51:22.265Z,100619.66
2023-04-05T20:56:23.424Z,100606.50
2023-04-05T21:01:24.794Z,100613.34
2023-04-05T21:06:26.340Z,100613.22
2023-04-05T21:11:27.529Z,100603.22
2023-04-05T21:16:28.859Z,100606.25
2023-04-05T21:21:31.164Z,100599.94
2023-04-05T21:26:32.401Z,100599.34
2023-04-05T21:31:33.590Z,100604.31
2023-04-05T21:36:34.815Z,100587.28
2023-04-05T21:41:36.007Z,100592.53
2023-04-05T21:46:37.328Z,100590.13
2023-04-05T21:51:38.568Z,100588.56
2023-04-05T21:56:40.500Z,100588.03
2023-04-05T22:01:41.787Z,100582.22
2023-04-05T22:06:43.000Z,100579.59
2023-04-05T22:11:44.165Z,100582.28
2023-04-05T22:16:45.410Z,100580.94
2023-04-05T22:21:46.688Z,100578.13
2023-04-05T22:26:48.870Z,100573.44
2023-04-05T22:31:50.096Z,100571.69
2023-04-05T22:36:51.313Z,100569.06
2023-04-05T22:41:52.546Z,100568.25
2023-04-05T22:46:53.746Z,100569.59
2023-04-05T22:51:54.989Z,100575.66
2023-04-05T22:56:56.540Z,100567.69
2023-04-05T23:01:57.693Z,100567.31
2023-04-05T23:06:58.916Z,100565.84
2023-04-05T23:12:00.153Z,100563.91
2023-04-05T23:17:01.382Z,100556.66
2023-04-05T23:22:02.560Z,100564.19
2023-04-05T23:27:03.780Z,100563.00
2023-04-05T23:32:06.747Z,100563.91
2023-04-05T23:37:07.989Z,100555.56
2023-04-05T23:42:09.326Z,100554.44
2023-04-05T23:47:10.525Z,100550.53
2023-04-05T23:52:11.814Z,100551.06
2023-04-05T23:57:12.982Z,100551.31
